Time;durP1;ratioP1;P1;durP2;ratioP2;P2;SDS_P1;SDS_P2;PMS_P1;PMS_P2;Temp;Humidity;BMP_temperature;BMP_pressure;BME280_temperature;BME280_humidity;BME280_pressure;Samples;Min_cycle;Max_cycle;Signal;HPM_P1;HPM_P2
2023/04/09 00:00:36;;;;;;;0.03;0.03;;;9.10;88.20;;;;;;5049986;28;20052;-64
2023/04/09 00:03:01;;;;;;;0.00;0.00;;;9.00;88.20;;;;;;5050220;28;20175;-64
2023/04/09 00:05:27;;;;;;;0.00;0.00;;;9.10;88.20;;;;;;5048609;28;20513;-64
2023/04/09 00:07:53;;;;;;;0.10;0.10;;;9.10;88.20;;;;;;5047949;28;20041;-64
2023/04/09 00:10:19;;;;;;;0.30;0.30;;;9.10;88.20;;;;;;5049878;28;20041;-64
2023/04/09 00:12:44;;;;;;;0.00;0.00;;;9.10;88.20;;;;;;5049873;28;20040;-64
2023/04/09 00:15:11;;;;;;;0.00;0.00;;;9.10;88.20;;;;;;5050213;28;20029;-64
2023/04/09 00:17:36;;;;;;;0.00;0.00;;;9.10;88.20;;;;;;5049922;28;20037;-64
2023/04/09 00:20:03;;;;;;;0.10;0.10;;;9.10;88.20;;;;;;5049890;28;20036;-64
2023/04/09 00:22:28;;;;;;;0.00;0.00;;;9.20;88.20;;;;;;5050350;28;20045;-64
2023/04/09 00:24:54;;;;;;;0.00;0.00;;;9.20;88.20;;;;;;5050065;28;20575;-64
2023/04/09 00:27:19;;;;;;;0.00;0.00;;;9.20;88.20;;;;;;5049637;28;20040;-64
2023/04/09 00:29:46;;;;;;;0.00;0.00;;;9.30;88.20;;;;;;5049908;28;20056;-64
2023/04/09 00:32:12;;;;;;;0.00;0.00;;;9.20;88.20;;;;;;5049207;28;20048;-64
2023/04/09 00:34:38;;;;;;;0.00;0.00;;;9.30;88.20;;;;;;5050177;28;20041;-64
2023/04/09 00:37:04;;;;;;;0.00;0.00;;;9.30;88.10;;;;;;5048816;28;20485;-64
2023/04/09 00:39:30;;;;;;;0.00;0.00;;;9.30;88.10;;;;;;5049517;28;20064;-64
2023/04/09 00:42:01;;;;;;;0.00;0.00;;;9.30;88.00;;;;;;5049409;28;20122;-64
2023/04/09 00:44:27;;;;;;;0.10;0.10;;;9.30;88.00;;;;;;5048804;28;20044;-65
2023/04/09 00:46:53;;;;;;;0.00;0.00;;;9.30;88.00;;;;;;5050615;28;20049;-65
2023/04/09 00:49:19;;;;;;;0.00;0.00;;;9.30;88.00;;;;;;5049930;28;20115;-65
2023/04/09 00:51:45;;;;;;;0.00;0.00;;;9.40;88.00;;;;;;5048556;28;20033;-65
2023/04/09 00:54:11;;;;;;;0.00;0.00;;;9.40;87.90;;;;;;5049266;28;20649;-65
2023/04/09 00:56:37;;;;;;;0.00;0.00;;;9.40;88.00;;;;;;5049407;28;20044;-65
2023/04/09 00:59:03;;;;;;;2.33;1.65;;;9.50;87.90;;;;;;5049331;28;20048;-65
2023/04/09 01:01:29;;;;;;;0.00;0.00;;;9.50;87.90;;;;;;5049120;28;20041;-65
2023/04/09 01:03:55;;;;;;;0.00;0.00;;;9.40;87.90;;;;;;5049095;28;20548;-65
2023/04/09 01:06:36;;;;;;;0.00;0.00;;;9.50;87.90;;;;;;5049143;28;20060;-65
2023/04/09 01:09:11;;;;;;;0.00;0.00;;;9.50;87.90;;;;;;5049069;28;20045;-65
2023/04/09 01:11:53;;;;;;;0.00;0.00;;;9.40;87.80;;;;;;5049283;28;20041;-65
2023/04/09 01:14:44;;;;;;;0.10;0.10;;;9.40;87.90;;;;;;5049127;28;20044;-65
2023/04/09 01:17:21;;;;;;;0.13;0.13;;;9.50;87.80;;;;;;5048886;28;20131;-65
2023/04/09 01:20:17;;;;;;;0.00;0.00;;;9.40;87.80;;;;;;5048739;28;20079;-65
2023/04/09 01:23:20;;;;;;;0.30;0.30;;;9.40;87.70;;;;;;5048687;28;20090;-65
2023/04/09 01:25:55;;;;;;;0.00;0.00;;;9.40;87.70;;;;;;5048650;28;20119;-65
2023/04/09 01:28:30;;;;;;;0.00;0.00;;;9.40;87.70;;;;;;5048893;28;20056;-65
2023/04/09 01:31:02;;;;;;;0.00;0.00;;;9.40;87.70;;;;;;5048637;28;20076;-64
2023/04/09 01:33:30;;;;;;;0.00;0.00;;;9.40;87.70;;;;;;5048141;28;20049;-65
2023/04/09 01:35:57;;;;;;;0.00;0.00;;;9.30;87.70;;;;;;5048262;28;20116;-65
2023/04/09 01:38:24;;;;;;;0.00;0.00;;;9.30;87.70;;;;;;5048247;28;20036;-65
2023/04/09 01:40:50;;;;;;;0.13;0.13;;;9.30;87.80;;;;;;5047978;28;20041;-65
2023/04/09 01:43:17;;;;;;;0.00;0.00;;;9.40;87.70;;;;;;5047843;28;20036;-65
2023/04/09 01:45:44;;;;;;;0.00;0.00;;;9.30;87.70;;;;;;5047681;28;20037;-65
2023/04/09 01:48:11;;;;;;;0.10;0.10;;;9.30;87.80;;;;;;5047379;28;20124;-64
2023/04/09 01:50:36;;;;;;;0.00;0.00;;;9.30;87.80;;;;;;5048847;28;20045;-63
2023/04/09 01:53:03;;;;;;;1.23;1.17;;;9.30;87.90;;;;;;5047391;28;20072;-63
2023/04/09 01:55:28;;;;;;;0.00;0.00;;;9.30;87.80;;;;;;5047916;28;20493;-63
2023/04/09 01:57:54;;;;;;;0.03;0.03;;;9.30;87.70;;;;;;5046858;28;20049;-64
2023/04/09 02:00:19;;;;;;;0.00;0.00;;;9.30;87.70;;;;;;5048054;28;20147;-63
2023/04/09 02:02:52;;;;;;;0.00;0.00;;;9.30;87.70;;;;;;5045890;28;20466;-62
2023/04/09 02:05:21;;;;;;;0.00;0.00;;;9.30;87.70;;;;;;5048049;28;20045;-63
2023/04/09 02:07:53;;;;;;;0.00;0.00;;;9.30;87.70;;;;;;5047348;28;20617;-63
2023/04/09 02:10:21;;;;;;;0.00;0.00;;;9.30;87.60;;;;;;5048144;28;20033;-63
2023/04/09 02:12:50;;;;;;;0.00;0.00;;;9.30;87.50;;;;;;5047580;28;20044;-63
2023/04/09 02:15:16;;;;;;;0.25;0.25;;;9.30;87.40;;;;;;5045706;28;20673;-62
2023/04/09 02:17:42;;;;;;;0.00;0.00;;;9.30;87.30;;;;;;5047150;28;20167;-63
2023/04/09 02:20:08;;;;;;;1.88;0.38;;;9.30;87.30;;;;;;5047819;28;20152;-64
2023/04/09 02:22:34;;;;;;;0.10;0.10;;;9.20;87.20;;;;;;5047895;28;20076;-63
2023/04/09 02:24:59;;;;;;;0.00;0.00;;;9.30;87.20;;;;;;5047656;28;20421;-62
2023/04/09 02:27:25;;;;;;;0.03;0.03;;;9.30;87.20;;;;;;5047920;28;20037;-62
2023/04/09 02:29:50;;;;;;;0.13;0.13;;;9.30;87.10;;;;;;5047364;28;20076;-63
2023/04/09 02:32:16;;;;;;;0.40;0.22;;;9.20;87.10;;;;;;5047377;28;20147;-63
2023/04/09 02:34:41;;;;;;;0.00;0.00;;;9.30;87.10;;;;;;5047577;28;20488;-63
2023/04/09 02:37:07;;;;;;;1.10;0.60;;;9.30;87.10;;;;;;5047489;28;20513;-63
2023/04/09 02:39:32;;;;;;;0.05;0.05;;;9.20;87.00;;;;;;5045193;28;20045;-63
2023/04/09 02:41:58;;;;;;;0.85;0.85;;;9.30;87.00;;;;;;5046894;28;20049;-63
2023/04/09 02:44:24;;;;;;;0.00;0.00;;;9.20;87.00;;;;;;5047952;28;20420;-63
2023/04/09 02:46:50;;;;;;;0.00;0.00;;;9.20;87.00;;;;;;5047649;28;21195;-63
2023/04/09 02:49:16;;;;;;;0.00;0.00;;;9.20;87.10;;;;;;5047145;28;20057;-63
2023/04/09 02:51:42;;;;;;;0.10;0.10;;;9.20;87.10;;;;;;5047324;28;20044;-63
2023/04/09 02:54:07;;;;;;;0.65;0.57;;;9.10;87.10;;;;;;5047486;28;20115;-63
2023/04/09 02:56:33;;;;;;;0.13;0.13;;;9.10;87.10;;;;;;5047205;28;20084;-63
2023/04/09 02:58:58;;;;;;;0.10;0.10;;;9.10;87.00;;;;;;5047219;28;20056;-63
2023/04/09 03:01:24;;;;;;;2.28;0.75;;;9.10;87.00;;;;;;5046524;28;20049;-63
2023/04/09 03:03:49;;;;;;;0.10;0.10;;;9.10;87.00;;;;;;5046606;28;20413;-64
2023/04/09 03:06:17;;;;;;;1.58;0.47;;;9.00;86.90;;;;;;5048027;28;20037;-63
2023/04/09 03:08:42;;;;;;;0.00;0.00;;;9.00;86.80;;;;;;5049572;28;20094;-63
2023/04/09 03:11:08;;;;;;;0.47;0.47;;;9.00;86.80;;;;;;5051127;28;20448;-63
2023/04/09 03:13:33;;;;;;;0.15;0.15;;;9.00;86.80;;;;;;5050851;28;20139;-63
2023/04/09 03:15:59;;;;;;;0.00;0.00;;;9.00;86.80;;;;;;5050731;28;20512;-63
2023/04/09 03:18:24;;;;;;;0.20;0.20;;;8.90;86.80;;;;;;5050947;28;20480;-63
2023/04/09 03:20:50;;;;;;;0.90;0.52;;;9.00;86.80;;;;;;5050406;28;20041;-63
2023/04/09 03:23:16;;;;;;;0.00;0.00;;;9.00;86.80;;;;;;5051214;28;20098;-63
2023/04/09 03:25:41;;;;;;;0.40;0.40;;;9.00;86.80;;;;;;5051239;28;20497;-63
2023/04/09 03:28:07;;;;;;;0.00;0.00;;;9.00;86.80;;;;;;5050482;28;20114;-63
2023/04/09 03:30:32;;;;;;;1.25;1.23;;;9.00;86.80;;;;;;5047853;28;20198;-63
2023/04/09 03:32:58;;;;;;;1.70;1.40;;;9.00;86.80;;;;;;5050533;28;20159;-63
2023/04/09 03:35:23;;;;;;;0.10;0.10;;;9.00;86.80;;;;;;5051029;28;20064;-63
2023/04/09 03:37:50;;;;;;;0.73;0.73;;;9.00;86.80;;;;;;5050271;28;20166;-63
2023/04/09 03:40:15;;;;;;;0.00;0.00;;;9.00;86.90;;;;;;5049919;28;20086;-64
2023/04/09 03:42:42;;;;;;;0.00;0.00;;;9.00;86.80;;;;;;5050152;28;20408;-64
2023/04/09 03:45:08;;;;;;;0.05;0.05;;;9.00;86.90;;;;;;5047755;28;20049;-64
2023/04/09 03:47:34;;;;;;;0.00;0.00;;;9.00;86.90;;;;;;5050254;28;20047;-64
2023/04/09 03:49:59;;;;;;;1.75;1.35;;;9.00;86.90;;;;;;5049688;28;20033;-64
2023/04/09 03:52:25;;;;;;;0.00;0.00;;;8.90;87.00;;;;;;5049185;28;20044;-64
2023/04/09 03:54:50;;;;;;;0.00;0.00;;;9.00;87.00;;;;;;5049529;28;20525;-64
2023/04/09 03:57:16;;;;;;;0.63;0.50;;;8.90;87.00;;;;;;5050464;28;20033;-64
2023/04/09 03:59:42;;;;;;;0.00;0.00;;;8.90;86.90;;;;;;5050036;28;20084;-64
2023/04/09 04:02:07;;;;;;;0.08;0.08;;;8.90;86.90;;;;;;5050179;28;20036;-64
2023/04/09 04:04:33;;;;;;;1.08;1.00;;;8.90;86.90;;;;;;5050052;28;20049;-64
2023/04/09 04:06:58;;;;;;;0.10;0.10;;;9.00;86.90;;;;;;5049948;28;20037;-64
2023/04/09 04:09:24;;;;;;;3.00;0.80;;;8.90;86.90;;;;;;5050514;28;20037;-64
2023/04/09 04:11:49;;;;;;;0.28;0.28;;;8.90;87.00;;;;;;5049566;28;20048;-64
2023/04/09 04:14:15;;;;;;;0.00;0.00;;;8.90;86.90;;;;;;5049786;28;20455;-64
2023/04/09 04:16:41;;;;;;;0.00;0.00;;;8.90;86.90;;;;;;5032089;28;20044;-64
2023/04/09 04:19:06;;;;;;;0.10;0.10;;;8.90;86.90;;;;;;5049790;28;20072;-64
2023/04/09 04:21:32;;;;;;;0.00;0.00;;;8.90;87.00;;;;;;5049373;28;20053;-64
2023/04/09 04:23:57;;;;;;;0.00;0.00;;;8.90;87.00;;;;;;5050117;28;20041;-65
2023/04/09 04:26:23;;;;;;;1.30;1.25;;;8.90;87.00;;;;;;5044650;28;20504;-65
2023/04/09 04:28:49;;;;;;;0.00;0.00;;;8.90;86.90;;;;;;5046786;28;20041;-65
2023/04/09 04:31:15;;;;;;;0.00;0.00;;;8.70;86.90;;;;;;5039422;28;20075;-65
2023/04/09 04:33:41;;;;;;;0.30;0.30;;;8.70;87.10;;;;;;5043504;28;20040;-65
2023/04/09 04:36:11;;;;;;;0.00;0.00;;;8.70;87.20;;;;;;5043309;28;20159;-65
2023/04/09 04:38:38;;;;;;;0.65;0.65;;;8.70;87.30;;;;;;5043618;28;20563;-65
2023/04/09 04:41:04;;;;;;;0.00;0.00;;;8.70;87.40;;;;;;5047198;28;20041;-65
2023/04/09 04:43:30;;;;;;;0.00;0.00;;;8.60;87.40;;;;;;5043339;28;20049;-65
2023/04/09 04:45:55;;;;;;;0.03;0.03;;;8.80;87.50;;;;;;5047174;28;20076;-65
2023/04/09 04:48:21;;;;;;;0.00;0.00;;;8.80;87.40;;;;;;5045835;28;20045;-65
2023/04/09 04:50:57;;;;;;;0.00;0.00;;;8.80;87.40;;;;;;5044081;28;20069;-65
2023/04/09 04:53:23;;;;;;;0.05;0.05;;;8.80;87.40;;;;;;5046003;28;20047;-65
2023/04/09 04:55:49;;;;;;;0.00;0.00;;;8.80;87.40;;;;;;5045336;28;20052;-65
2023/04/09 04:58:15;;;;;;;1.20;0.32;;;8.90;87.40;;;;;;5043726;28;20045;-65
2023/04/09 05:00:40;;;;;;;0.00;0.00;;;8.90;87.50;;;;;;5047903;28;20052;-65
2023/04/09 05:03:06;;;;;;;0.00;0.00;;;8.90;87.40;;;;;;5047907;28;20036;-64
2023/04/09 05:05:31;;;;;;;0.05;0.05;;;8.90;87.40;;;;;;5046722;28;20126;-65
2023/04/09 05:07:57;;;;;;;0.00;0.00;;;8.90;87.30;;;;;;5048062;28;20099;-65
2023/04/09 05:10:22;;;;;;;0.00;0.00;;;8.90;87.30;;;;;;5044118;28;20033;-65
2023/04/09 05:12:48;;;;;;;0.00;0.00;;;8.90;87.30;;;;;;5032788;28;20057;-65
2023/04/09 05:15:13;;;;;;;0.00;0.00;;;8.90;87.20;;;;;;5035833;28;20033;-65
2023/04/09 05:17:42;;;;;;;0.00;0.00;;;8.90;87.30;;;;;;5043252;28;20405;-65
2023/04/09 05:20:08;;;;;;;0.00;0.00;;;8.90;87.30;;;;;;5043668;28;20591;-65
2023/04/09 05:22:35;;;;;;;0.00;0.00;;;8.90;87.20;;;;;;5036969;28;20040;-65
2023/04/09 05:25:01;;;;;;;0.00;0.00;;;8.90;87.20;;;;;;5029692;28;20403;-65
2023/04/09 05:27:27;;;;;;;0.80;0.70;;;8.90;87.10;;;;;;5040806;28;20044;-65
2023/04/09 05:29:53;;;;;;;0.00;0.00;;;8.90;87.10;;;;;;5041495;28;20041;-65
2023/04/09 05:32:18;;;;;;;0.00;0.00;;;8.90;87.10;;;;;;5040327;28;20127;-64
2023/04/09 05:34:44;;;;;;;0.00;0.00;;;8.90;87.10;;;;;;5039753;28;20124;-65
2023/04/09 05:37:10;;;;;;;0.32;0.32;;;8.90;87.10;;;;;;5040698;28;20554;-65
2023/04/09 05:39:35;;;;;;;0.00;0.00;;;8.90;87.10;;;;;;5029206;28;20045;-65
2023/04/09 05:42:01;;;;;;;0.90;0.85;;;8.80;87.10;;;;;;5034275;28;20055;-64
2023/04/09 05:44:27;;;;;;;0.10;0.10;;;8.90;87.10;;;;;;5043433;28;20082;-65
2023/04/09 05:46:52;;;;;;;0.00;0.00;;;8.90;87.10;;;;;;5047285;28;20041;-65
2023/04/09 05:49:18;;;;;;;0.10;0.10;;;8.90;87.00;;;;;;5035928;28;20402;-65
2023/04/09 05:51:43;;;;;;;0.00;0.00;;;8.80;87.00;;;;;;5030999;28;20056;-64
2023/04/09 05:54:09;;;;;;;0.03;0.03;;;8.80;87.00;;;;;;5030680;28;20048;-65
2023/04/09 05:56:35;;;;;;;0.00;0.00;;;8.80;87.00;;;;;;5033162;28;20910;-65
2023/04/09 05:59:00;;;;;;;0.00;0.00;;;8.80;87.00;;;;;;5034081;28;20095;-65
2023/04/09 06:01:26;;;;;;;0.98;0.68;;;8.80;87.00;;;;;;5045002;28;20084;-64
2023/04/09 06:03:52;;;;;;;0.10;0.10;;;8.90;87.10;;;;;;5045081;28;20037;-65
2023/04/09 06:06:17;;;;;;;0.65;0.65;;;8.80;87.10;;;;;;5038018;28;20648;-65
2023/04/09 06:08:43;;;;;;;0.25;0.25;;;8.90;87.10;;;;;;5033250;28;20041;-64
2023/04/09 06:11:12;;;;;;;0.08;0.08;;;8.90;87.00;;;;;;5038704;28;20037;-64
2023/04/09 06:13:39;;;;;;;0.30;0.30;;;8.90;87.00;;;;;;5042315;28;20037;-64
2023/04/09 06:16:06;;;;;;;0.00;0.00;;;8.90;87.00;;;;;;5048713;28;20072;-64
2023/04/09 06:18:31;;;;;;;0.00;0.00;;;8.90;87.10;;;;;;5046202;28;20041;-64
2023/04/09 06:21:05;;;;;;;0.08;0.08;;;8.90;87.00;;;;;;5048669;28;20052;-64
2023/04/09 06:23:32;;;;;;;0.00;0.00;;;8.90;86.90;;;;;;5047778;28;20044;-65
2023/04/09 06:25:57;;;;;;;0.20;0.20;;;8.90;87.00;;;;;;5048105;28;20120;-65
2023/04/09 06:28:23;;;;;;;0.00;0.00;;;8.90;86.90;;;;;;5048708;28;20128;-67
2023/04/09 06:30:49;;;;;;;0.73;0.73;;;9.00;86.90;;;;;;5046732;28;20499;-64
2023/04/09 06:33:15;;;;;;;0.05;0.05;;;8.90;86.80;;;;;;5048537;28;20049;-65
2023/04/09 06:35:41;;;;;;;0.00;0.00;;;9.00;86.80;;;;;;5043444;28;20083;-65
2023/04/09 06:38:08;;;;;;;0.00;0.00;;;9.00;86.80;;;;;;5047806;28;20040;-65
2023/04/09 06:40:36;;;;;;;0.17;0.17;;;8.90;86.80;;;;;;5047554;28;20136;-65
2023/04/09 06:43:01;;;;;;;0.00;0.00;;;8.90;86.70;;;;;;5045385;28;20494;-64
2023/04/09 06:45:27;;;;;;;0.63;0.63;;;8.90;86.70;;;;;;5041770;28;20056;-64
2023/04/09 06:47:53;;;;;;;0.00;0.00;;;9.00;86.60;;;;;;5047591;28;20044;-64
2023/04/09 06:50:18;;;;;;;0.52;0.52;;;8.90;86.50;;;;;;5048960;28;20045;-64
2023/04/09 06:52:44;;;;;;;0.00;0.00;;;8.90;86.50;;;;;;5047295;28;20079;-64
2023/04/09 06:55:10;;;;;;;0.10;0.10;;;8.90;86.40;;;;;;5047790;28;20100;-64
2023/04/09 06:57:37;;;;;;;0.70;0.70;;;8.90;86.30;;;;;;5048938;28;20846;-64
2023/04/09 07:00:03;;;;;;;0.98;0.95;;;8.90;86.20;;;;;;5051451;28;20128;-64
2023/04/09 07:02:28;;;;;;;2.65;0.85;;;9.00;86.20;;;;;;5051624;28;20198;-64
2023/04/09 07:04:54;;;;;;;0.00;0.00;;;8.90;86.00;;;;;;5051353;28;20094;-64
2023/04/09 07:07:21;;;;;;;0.00;0.00;;;8.90;86.00;;;;;;5051047;28;20897;-64
2023/04/09 07:09:49;;;;;;;0.73;0.63;;;9.00;86.00;;;;;;5051271;28;20171;-64
2023/04/09 07:12:31;;;;;;;0.65;0.65;;;9.00;85.90;;;;;;5048576;28;20062;-64
2023/04/09 07:15:05;;;;;;;0.00;0.00;;;9.10;85.80;;;;;;5051071;28;20044;-65
2023/04/09 07:17:31;;;;;;;0.00;0.00;;;9.00;85.70;;;;;;5051229;28;20048;-64
2023/04/09 07:19:57;;;;;;;0.55;0.55;;;9.10;85.80;;;;;;5051313;28;20037;-65
2023/04/09 07:22:23;;;;;;;0.28;0.28;;;9.10;85.50;;;;;;5051017;28;20049;-62
2023/04/09 07:24:52;;;;;;;0.22;0.22;;;9.00;85.20;;;;;;5051491;28;20702;-62
2023/04/09 07:27:22;;;;;;;0.00;0.00;;;9.00;85.20;;;;;;5017832;28;20137;-64
2023/04/09 07:29:48;;;;;;;0.20;0.20;;;9.00;85.20;;;;;;5031164;28;20041;-63
2023/04/09 07:32:14;;;;;;;5.00;1.35;;;9.00;85.30;;;;;;5042324;28;20094;-63
2023/04/09 07:34:40;;;;;;;0.15;0.15;;;9.00;85.20;;;;;;5051262;28;20053;-63
2023/04/09 07:37:06;;;;;;;0.00;0.00;;;9.00;85.20;;;;;;5050851;28;20126;-62
2023/04/09 07:39:31;;;;;;;0.03;0.03;;;9.10;85.30;;;;;;5051423;28;20533;-62
2023/04/09 07:41:58;;;;;;;0.00;0.00;;;9.10;85.40;;;;;;5028821;28;20465;-62
2023/04/09 07:44:24;;;;;;;0.08;0.08;;;9.10;85.40;;;;;;5033547;28;20045;-62
2023/04/09 07:46:50;;;;;;;0.55;0.55;;;9.10;85.40;;;;;;5041235;28;20087;-62
2023/04/09 07:49:16;;;;;;;0.00;0.00;;;9.10;85.40;;;;;;5051465;28;20426;-62
2023/04/09 07:51:41;;;;;;;0.00;0.00;;;9.10;85.40;;;;;;5050452;28;20053;-62
2023/04/09 07:54:07;;;;;;;0.03;0.03;;;9.10;85.40;;;;;;5048927;28;20584;-63
2023/04/09 07:56:33;;;;;;;0.00;0.00;;;9.10;85.40;;;;;;5049621;28;20075;-62
2023/04/09 07:58:59;;;;;;;0.00;0.00;;;9.10;85.40;;;;;;5046637;28;20152;-62
2023/04/09 08:01:25;;;;;;;0.00;0.00;;;9.10;85.40;;;;;;5047983;28;20056;-63
2023/04/09 08:03:50;;;;;;;0.00;0.00;;;9.10;85.50;;;;;;5043697;28;20045;-63
2023/04/09 08:06:16;;;;;;;0.00;0.00;;;9.10;85.50;;;;;;5041149;28;20748;-63
2023/04/09 08:08:42;;;;;;;0.00;0.00;;;9.10;85.50;;;;;;5047670;28;20369;-63
2023/04/09 08:11:07;;;;;;;1.52;0.32;;;9.10;85.50;;;;;;5036198;28;20107;-63
2023/04/09 08:13:33;;;;;;;0.10;0.10;;;9.10;85.50;;;;;;5047800;28;20447;-63
2023/04/09 08:16:02;;;;;;;0.30;0.30;;;9.10;85.50;;;;;;5041930;28;20079;-63
2023/04/09 08:18:28;;;;;;;0.10;0.10;;;9.10;85.60;;;;;;5024512;28;20044;-63
2023/04/09 08:20:55;;;;;;;0.68;0.68;;;9.20;85.70;;;;;;5048392;28;20053;-63
2023/04/09 08:23:20;;;;;;;0.80;0.43;;;9.10;85.80;;;;;;5047467;28;20501;-63
2023/04/09 08:25:46;;;;;;;0.10;0.10;;;9.10;85.70;;;;;;5048416;28;20045;-63
2023/04/09 08:28:11;;;;;;;0.05;0.05;;;9.20;85.70;;;;;;5049443;28;20519;-63
2023/04/09 08:30:37;;;;;;;0.05;0.05;;;9.20;85.70;;;;;;5049272;28;20045;-63
2023/04/09 08:33:03;;;;;;;2.70;0.63;;;9.30;85.70;;;;;;5049007;28;20494;-63
2023/04/09 08:35:32;;;;;;;0.60;0.60;;;9.30;85.70;;;;;;5048966;28;20835;-63
2023/04/09 08:37:58;;;;;;;1.75;0.60;;;9.30;85.80;;;;;;5043575;28;20048;-62
2023/04/09 08:40:24;;;;;;;0.05;0.05;;;9.30;85.70;;;;;;5049416;28;20102;-62
2023/04/09 08:42:57;;;;;;;0.00;0.00;;;9.30;85.70;;;;;;5049623;28;20489;-62
2023/04/09 08:45:23;;;;;;;2.83;1.08;;;9.30;85.70;;;;;;5044013;28;20119;-62
2023/04/09 08:47:52;;;;;;;0.20;0.20;;;9.40;85.60;;;;;;5049056;28;20520;-62
2023/04/09 08:50:18;;;;;;;0.00;0.00;;;9.30;85.60;;;;;;5050018;28;20123;-61
2023/04/09 08:52:47;;;;;;;6.60;2.08;;;9.30;85.60;;;;;;5049914;28;20036;-62
2023/04/09 08:55:12;;;;;;;0.68;0.68;;;9.40;85.50;;;;;;5049764;28;20056;-62
2023/04/09 08:57:38;;;;;;;0.10;0.10;;;9.50;85.50;;;;;;5048600;28;20049;-62
2023/04/09 09:00:05;;;;;;;0.30;0.30;;;9.40;85.50;;;;;;5049414;28;20045;-62
2023/04/09 09:02:31;;;;;;;0.00;0.00;;;9.50;85.50;;;;;;5044507;28;20045;-62
2023/04/09 09:04:59;;;;;;;0.30;0.30;;;9.60;85.50;;;;;;5047661;28;20040;-61
2023/04/09 09:07:28;;;;;;;0.85;0.85;;;9.60;85.40;;;;;;5049074;28;20154;-62
2023/04/09 09:09:57;;;;;;;0.00;0.00;;;9.60;85.30;;;;;;5049632;28;20386;-63
2023/04/09 09:12:52;;;;;;;0.00;0.00;;;9.60;85.30;;;;;;5048225;28;20128;-61
2023/04/09 09:15:28;;;;;;;0.95;0.95;;;9.60;85.20;;;;;;5031630;28;20141;-62
2023/04/09 09:17:56;;;;;;;0.00;0.00;;;9.60;85.10;;;;;;5046756;28;20040;-61
2023/04/09 09:20:22;;;;;;;1.30;1.20;;;9.60;85.10;;;;;;5045230;28;20033;-62
2023/04/09 09:22:50;;;;;;;0.30;0.30;;;9.60;85.00;;;;;;5042875;28;20087;-61
2023/04/09 09:25:16;;;;;;;0.03;0.03;;;9.60;85.00;;;;;;5049924;28;20060;-61
2023/04/09 09:27:42;;;;;;;0.00;0.00;;;9.60;85.00;;;;;;5039047;28;20041;-62
2023/04/09 09:30:09;;;;;;;3.15;0.55;;;9.70;85.00;;;;;;5048311;28;20041;-62
2023/04/09 09:32:35;;;;;;;0.63;0.63;;;9.70;85.00;;;;;;5049829;28;20045;-61
2023/04/09 09:35:03;;;;;;;0.08;0.08;;;9.80;84.80;;;;;;5050105;28;20047;-63
2023/04/09 09:37:29;;;;;;;0.08;0.08;;;9.70;84.70;;;;;;5048717;28;20037;-62
2023/04/09 09:39:56;;;;;;;0.17;0.17;;;9.70;84.70;;;;;;5035859;28;20033;-62
2023/04/09 09:42:21;;;;;;;0.80;0.80;;;9.70;84.70;;;;;;5049774;28;20071;-62
2023/04/09 09:44:48;;;;;;;0.15;0.15;;;9.80;84.60;;;;;;5044888;28;20072;-61
2023/04/09 09:47:15;;;;;;;0.00;0.00;;;9.70;84.60;;;;;;5049353;28;20135;-65
2023/04/09 09:49:40;;;;;;;0.00;0.00;;;10.30;86.90;;;;;;5049165;28;20120;-63
2023/04/09 09:52:09;;;;;;;0.10;0.10;;;10.70;85.60;;;;;;5047898;28;20455;-64
2023/04/09 09:54:43;;;;;;;0.25;0.25;;;10.90;84.20;;;;;;5041391;28;20076;-63
2023/04/09 09:57:12;;;;;;;0.32;0.32;;;10.90;83.80;;;;;;5048591;28;20048;-61
2023/04/09 09:59:58;;;;;;;0.10;0.10;;;10.80;83.50;;;;;;5049189;28;20049;-61
2023/04/09 10:02:29;;;;;;;0.80;0.80;;;10.60;83.00;;;;;;5044285;28;20049;-62
2023/04/09 10:04:59;;;;;;;0.95;0.82;;;10.60;82.70;;;;;;5038037;28;20052;-62
2023/04/09 10:07:25;;;;;;;0.10;0.10;;;10.50;82.60;;;;;;5049422;28;20044;-63
2023/04/09 10:09:53;;;;;;;0.73;0.73;;;10.60;82.70;;;;;;5032430;28;20049;-62
2023/04/09 10:12:23;;;;;;;0.20;0.20;;;10.60;82.80;;;;;;5038327;28;20044;-62
2023/04/09 10:14:51;;;;;;;0.35;0.25;;;10.60;82.80;;;;;;5048985;28;20056;-61
2023/04/09 10:17:18;;;;;;;7.05;0.70;;;10.50;82.80;;;;;;5044394;28;20056;-62
2023/04/09 10:19:51;;;;;;;0.10;0.10;;;10.60;82.90;;;;;;5047756;28;20504;-62
2023/04/09 10:22:22;;;;;;;3.50;0.90;;;10.60;82.70;;;;;;5049341;28;20045;-62
2023/04/09 10:24:48;;;;;;;0.20;0.20;;;10.60;82.60;;;;;;5048661;28;20112;-62
2023/04/09 10:27:15;;;;;;;0.35;0.35;;;10.60;82.60;;;;;;5044700;28;20048;-64
2023/04/09 10:29:45;;;;;;;0.45;0.45;;;10.60;82.20;;;;;;5030019;28;20092;-62
2023/04/09 10:32:12;;;;;;;3.95;0.93;;;10.60;81.30;;;;;;5028861;28;20038;-62
2023/04/09 10:34:41;;;;;;;2.10;1.38;;;10.60;81.50;;;;;;5011599;28;20046;-61
2023/04/09 10:37:09;;;;;;;0.10;0.10;;;10.60;81.70;;;;;;5029005;28;20037;-63
2023/04/09 10:39:40;;;;;;;0.10;0.10;;;10.70;81.70;;;;;;5047655;28;20394;-62
2023/04/09 10:42:36;;;;;;;4.82;1.25;;;10.60;81.10;;;;;;5047494;28;20480;-62
2023/04/09 10:45:06;;;;;;;0.10;0.10;;;10.60;81.50;;;;;;5035116;28;20123;-61
2023/04/09 10:47:33;;;;;;;0.63;0.63;;;10.70;81.50;;;;;;5048564;28;20045;-61
2023/04/09 10:50:29;;;;;;;0.25;0.25;;;10.70;80.80;;;;;;5048166;28;20052;-61
2023/04/09 10:52:57;;;;;;;0.22;0.22;;;10.80;80.90;;;;;;5042880;28;20120;-62
2023/04/09 10:55:39;;;;;;;0.10;0.10;;;10.90;81.00;;;;;;5048422;28;20048;-62
2023/04/09 10:58:05;;;;;;;;;;;10.90;81.00;;;;;;5048862;28;20056;-62
2023/04/09 11:00:31;;;;;;;0.50;0.50;;;11.00;81.00;;;;;;5048486;28;20071;-62
2023/04/09 11:03:20;;;;;;;0.10;0.10;;;11.00;80.90;;;;;;5047912;28;20044;-62
2023/04/09 11:06:08;;;;;;;0.10;0.10;;;11.10;81.10;;;;;;5048209;28;20037;-62
2023/04/09 11:08:34;;;;;;;0.10;0.10;;;11.20;81.10;;;;;;5042470;28;20041;-62
2023/04/09 11:11:00;;;;;;;1.30;1.25;;;11.30;81.00;;;;;;5048439;28;20042;-62
2023/04/09 11:13:27;;;;;;;0.20;0.20;;;11.40;80.80;;;;;;5043503;28;20117;-63
2023/04/09 11:15:54;;;;;;;0.28;0.28;;;11.50;79.10;;;;;;5030932;28;20524;-63
2023/04/09 11:18:24;;;;;;;0.00;0.00;;;11.60;78.60;;;;;;5039646;28;20041;-66
2023/04/09 11:21:02;;;;;;;0.00;0.00;;;12.30;81.10;;;;;;5045893;28;20080;-66
2023/04/09 11:23:31;;;;;;;0.10;0.10;;;12.60;77.70;;;;;;5028657;28;20041;-66
2023/04/09 11:25:56;;;;;;;0.38;0.38;;;13.00;75.50;;;;;;5030960;28;20125;-62
2023/04/09 11:28:23;;;;;;;0.52;0.52;;;13.20;73.90;;;;;;5044808;28;20059;-63
2023/04/09 11:30:52;;;;;;;0.35;0.35;;;13.20;74.00;;;;;;5036978;28;20087;-62
2023/04/09 11:33:18;;;;;;;0.35;0.35;;;13.10;74.90;;;;;;5052199;28;20104;-62
2023/04/09 11:35:44;;;;;;;0.20;0.20;;;13.10;75.70;;;;;;5052103;28;20556;-61
2023/04/09 11:38:10;;;;;;;0.30;0.30;;;12.90;75.50;;;;;;5032577;28;20048;-62
2023/04/09 11:40:46;;;;;;;0.00;0.00;;;12.90;76.40;;;;;;5031718;28;20133;-63
2023/04/09 11:43:13;;;;;;;2.45;1.00;;;12.90;76.60;;;;;;5031992;28;20048;-61
2023/04/09 11:45:39;;;;;;;0.20;0.20;;;12.90;75.00;;;;;;5032062;28;20068;-62
2023/04/09 11:48:05;;;;;;;0.00;0.00;;;13.00;76.10;;;;;;5031667;28;20045;-62
2023/04/09 11:50:31;;;;;;;0.25;0.25;;;13.00;76.10;;;;;;5036844;28;20045;-62
2023/04/09 11:52:57;;;;;;;0.73;0.73;;;13.10;76.50;;;;;;5048259;28;20124;-63
2023/04/09 11:55:27;;;;;;;0.00;0.00;;;13.10;76.20;;;;;;5051654;28;20079;-62
2023/04/09 11:57:56;;;;;;;0.28;0.28;;;13.20;76.50;;;;;;5049881;28;20080;-62
2023/04/09 12:00:23;;;;;;;0.00;0.00;;;13.20;76.50;;;;;;5051633;28;20053;-62
2023/04/09 12:02:57;;;;;;;0.63;0.63;;;13.30;75.90;;;;;;5039321;28;20053;-62
2023/04/09 12:05:27;;;;;;;0.20;0.20;;;13.40;76.30;;;;;;5043393;28;20592;-61
2023/04/09 12:08:01;;;;;;;0.10;0.10;;;13.30;76.30;;;;;;5045820;28;20037;-62
2023/04/09 12:10:29;;;;;;;0.77;0.63;;;13.40;75.50;;;;;;5033981;28;20038;-62
2023/04/09 12:12:59;;;;;;;0.32;0.25;;;13.60;76.10;;;;;;5047960;28;20120;-63
2023/04/09 12:15:26;;;;;;;0.17;0.17;;;13.60;75.80;;;;;;5042940;28;20509;-62
2023/04/09 12:17:54;;;;;;;0.10;0.10;;;13.80;75.80;;;;;;5047480;28;20072;-62
2023/04/09 12:20:31;;;;;;;0.05;0.05;;;13.90;74.00;;;;;;5045793;28;20049;-62
2023/04/09 12:22:59;;;;;;;0.10;0.10;;;14.10;75.10;;;;;;5046262;28;20092;-62
2023/04/09 12:25:25;;;;;;;0.57;0.57;;;14.20;75.40;;;;;;5039048;28;20489;-62
2023/04/09 12:27:50;;;;;;;0.00;0.00;;;14.20;73.90;;;;;;5032651;28;20053;-60
2023/04/09 12:30:16;;;;;;;0.00;0.00;;;14.20;74.20;;;;;;5049853;28;20047;-60
2023/04/09 12:32:43;;;;;;;0.15;0.15;;;14.10;72.60;;;;;;5049156;28;20163;-60
2023/04/09 12:35:09;;;;;;;0.13;0.13;;;14.10;72.90;;;;;;5049939;28;20045;-60
2023/04/09 12:37:34;;;;;;;0.05;0.05;;;14.20;72.90;;;;;;5049628;28;20053;-60
2023/04/09 12:40:00;;;;;;;0.90;0.73;;;14.30;72.90;;;;;;5048187;28;20464;-60
2023/04/09 12:42:26;;;;;;;0.00;0.00;;;14.50;72.50;;;;;;5047361;28;20033;-60
2023/04/09 12:44:51;;;;;;;0.30;0.30;;;14.60;73.70;;;;;;5045185;28;20045;-63
2023/04/09 12:47:17;;;;;;;0.10;0.10;;;14.50;73.80;;;;;;5049672;28;20041;-62
2023/04/09 12:49:45;;;;;;;0.17;0.17;;;14.40;72.70;;;;;;5047946;28;20112;-63
2023/04/09 12:52:11;;;;;;;0.05;0.05;;;14.40;73.80;;;;;;5049144;28;20052;-62
2023/04/09 12:54:38;;;;;;;0.28;0.22;;;14.40;73.80;;;;;;5040293;28;20045;-62
2023/04/09 12:57:04;;;;;;;0.00;0.00;;;14.60;74.80;;;;;;5036156;28;20096;-62